createdAt,value
2023-04-29T00:01:33.670Z,100483.88
2023-04-29T00:08:35.373Z,100480.66
2023-04-29T00:15:37.452Z,100448.56
2023-04-29T00:22:38.988Z,100461.78
2023-04-29T00:29:40.619Z,100448.94
2023-04-29T00:36:42.190Z,100457.78
2023-04-29T00:43:43.753Z,100447.94
2023-04-29T00:50:45.329Z,100462.69
2023-04-29T00:57:52.305Z,100451.59
2023-04-29T01:04:54.009Z,100460.69
2023-04-29T01:12:19.259Z,100469.25
2023-04-29T01:19:20.688Z,100440.75
2023-04-29T01:26:23.496Z,100419.91
2023-04-29T01:33:44.725Z,100437.81
2023-04-29T01:41:15.105Z,100445.22
2023-04-29T01:48:17.927Z,100431.16
2023-04-29T01:55:19.994Z,100440.00
2023-04-29T02:02:41.674Z,100438.13
2023-04-29T02:09:51.646Z,100439.97
2023-04-29T02:16:53.553Z,100428.03
2023-04-29T02:23:58.012Z,100428.47
2023-04-29T02:30:59.965Z,100431.19
2023-04-29T02:38:01.713Z,100411.84
2023-04-29T02:45:03.892Z,100420.44
2023-04-29T02:52:05.788Z,100420.91
2023-04-29T02:59:09.602Z,100419.59
2023-04-29T03:06:11.527Z,100421.88
2023-04-29T03:13:13.108Z,100418.31
2023-04-29T03:20:15.428Z,100417.47
2023-04-29T03:27:17.662Z,100404.56
2023-04-29T03:34:19.282Z,100407.47
2023-04-29T03:41:28.359Z,100409.25
2023-04-29T03:48:30.417Z,100408.50
2023-04-29T03:55:32.065Z,100410.09
2023-04-29T04:02:35.187Z,100409.00
2023-04-29T04:09:38.182Z,100399.66
2023-04-29T04:16:39.942Z,100412.50
2023-04-29T04:23:41.983Z,100418.78
2023-04-29T04:30:46.637Z,100419.41
2023-04-29T04:37:48.295Z,100423.63
2023-04-29T04:44:49.903Z,100421.34
2023-04-29T04:52:09.792Z,100417.84
2023-04-29T04:59:11.624Z,100422.25
2023-04-29T05:06:15.591Z,100431.50
2023-04-29T05:13:20.541Z,100420.06
2023-04-29T05:20:22.469Z,100431.78
2023-04-29T05:27:24.122Z,100435.22
2023-04-29T05:34:25.964Z,100436.00
2023-04-29T05:41:27.866Z,100436.47
2023-04-29T05:48:44.505Z,100445.94
2023-04-29T05:55:48.347Z,100440.91
2023-04-29T06:02:58.832Z,100446.72
2023-04-29T06:10:02.506Z,100455.19
2023-04-29T06:17:05.538Z,100463.84
2023-04-29T06:24:07.801Z,100470.03
2023-04-29T06:31:10.150Z,100470.47
2023-04-29T06:38:11.862Z,100475.88
2023-04-29T06:45:36.449Z,100483.78
2023-04-29T06:52:42.981Z,100482.97
2023-04-29T06:59:44.656Z,100486.03
2023-04-29T07:06:46.999Z,100505.34
2023-04-29T07:13:48.733Z,100499.78
2023-04-29T07:20:52.665Z,100515.06
2023-04-29T07:27:54.511Z,100529.91
2023-04-29T07:34:56.228Z,100531.22
2023-04-29T07:41:58.030Z,100537.03
2023-04-29T07:48:59.591Z,100550.53
2023-04-29T07:56:05.919Z,100572.84
2023-04-29T08:03:07.744Z,100580.25
2023-04-29T08:10:09.766Z,100588.81
2023-04-29T08:17:12.293Z,100604.84
2023-04-29T08:24:13.872Z,100616.94
2023-04-29T08:31:18.996Z,100641.59
2023-04-29T08:38:20.599Z,100648.97
2023-04-29T08:45:22.131Z,100674.78
2023-04-29T08:52:24.310Z,100674.81
2023-04-29T08:59:25.956Z,100688.84
2023-04-29T09:06:27.810Z,100708.84
2023-04-29T09:13:30.630Z,100720.56
2023-04-29T09:20:32.533Z,100727.66
2023-04-29T09:27:34.585Z,100738.31
2023-04-29T09:34:37.732Z,100754.25
2023-04-29T09:41:42.372Z,100765.75
2023-04-29T09:48:43.920Z,100772.44
2023-04-29T09:55:54.494Z,100782.97
2023-04-29T10:02:56.123Z,100791.72
2023-04-29T10:09:57.833Z,100805.72
2023-04-29T10:17:10.868Z,100812.75
2023-04-29T10:24:13.523Z,100828.59
2023-04-29T10:31:16.670Z,100821.66
2023-04-29T10:38:25.064Z,100830.34
2023-04-29T10:45:32.548Z,100841.81
2023-04-29T10:52:51.500Z,100846.94
2023-04-29T10:59:53.072Z,100850.84
2023-04-29T11:06:55.801Z,100860.53
2023-04-29T11:13:57.390Z,100868.78
2023-04-29T11:21:07.938Z,100867.28
2023-04-29T11:28:09.503Z,100874.22
2023-04-29T11:35:15.256Z,100883.66
2023-04-29T11:42:21.330Z,100886.91
2023-04-29T11:49:29.974Z,100899.66
2023-04-29T11:56:31.607Z,100902.34
2023-04-29T12:03:33.830Z,100898.56
2023-04-29T12:10:36.669Z,100916.31
2023-04-29T12:17:38.835Z,100926.88
2023-04-29T12:24:40.923Z,100928.63
2023-04-29T12:31:43.471Z,100938.06
2023-04-29T12:38:45.536Z,100940.84
2023-04-29T12:45:47.112Z,100937.63
2023-04-29T12:52:48.746Z,100937.91
2023-04-29T12:59:50.405Z,100947.88
2023-04-29T13:06:58.474Z,100956.50
2023-04-29T13:14:00.024Z,100950.28
2023-04-29T13:21:02.652Z,100961.72
2023-04-29T13:28:07.542Z,100967.47
2023-04-29T13:35:09.264Z,100975.91
2023-04-29T13:42:11.231Z,100961.31
2023-04-29T13:49:27.126Z,100972.28
2023-04-29T14:03:40.302Z,100982.06
2023-04-29T14:10:42.211Z,100990.34
2023-04-29T14:17:43.812Z,100997.03
2023-04-29T14:24:46.345Z,101005.44
2023-04-29T14:31:47.984Z,101006.53
2023-04-29T14:38:49.661Z,101012.00
2023-04-29T14:45:51.299Z,101011.44
2023-04-29T14:52:52.881Z,101004.09
2023-04-29T14:59:54.417Z,101007.06
2023-04-29T15:06:57.117Z,101017.63
2023-04-29T15:13:58.852Z,101009.41
2023-04-29T15:21:00.456Z,101016.63
2023-04-29T15:28:02.336Z,101023.78
2023-04-29T15:35:04.788Z,101024.72
2023-04-29T15:42:06.365Z,101023.53
2023-04-29T15:49:07.989Z,101026.41
2023-04-29T15:56:09.872Z,101040.41
2023-04-29T16:03:11.502Z,101057.66
2023-04-29T16:10:13.215Z,101067.00
2023-04-29T16:17:14.758Z,101062.13
2023-04-29T16:24:16.389Z,101061.00
2023-04-29T16:31:19.921Z,101072.19
2023-04-29T16:38:21.635Z,101081.38
2023-04-29T16:45:26.328Z,101085.47
2023-04-29T16:52:27.997Z,101092.91
2023-04-29T16:59:29.560Z,101083.06
2023-04-29T17:06:32.243Z,101088.53
2023-04-29T17:13:33.840Z,101101.19
2023-04-29T17:20:36.244Z,101114.41
2023-04-29T17:27:38.008Z,101120.88
2023-04-29T17:34:39.985Z,101135.91
2023-04-29T17:41:41.761Z,101148.06
2023-04-29T17:48:43.382Z,101162.44
2023-04-29T17:55:46.078Z,101166.03
2023-04-29T18:02:47.707Z,101173.06
2023-04-29T18:09:49.459Z,101172.50
2023-04-29T18:16:51.593Z,101174.69
2023-04-29T18:23:53.986Z,101180.66
2023-04-29T18:30:56.944Z,101191.06
2023-04-29T18:37:58.524Z,101201.44
2023-04-29T18:45:00.103Z,101211.09
2023-04-29T18:52:01.674Z,101222.75
2023-04-29T18:59:03.206Z,101240.28
2023-04-29T19:06:04.824Z,101243.72
2023-04-29T19:13:06.900Z,101259.66
2023-04-29T19:20:09.955Z,101267.38
2023-04-29T19:27:12.014Z,101268.16
2023-04-29T19:34:13.556Z,101285.13
2023-04-29T19:41:15.339Z,101281.22
2023-04-29T19:48:17.200Z,101297.03
2023-04-29T19:55:18.858Z,101292.16
2023-04-29T20:02:20.495Z,101298.81
2023-04-29T20:09:22.302Z,101303.91
2023-04-29T20:16:23.993Z,101314.75
2023-04-29T20:23:25.774Z,101323.00
2023-04-29T20:30:27.416Z,101334.50
2023-04-29T20:37:29.010Z,101330.69
2023-04-29T20:44:31.334Z,101342.81
2023-04-29T20:51:32.944Z,101352.34
2023-04-29T20:58:34.560Z,101347.53
2023-04-29T21:05:36.256Z,101364.88
2023-04-29T21:12:37.889Z,101370.47
2023-04-29T21:19:39.496Z,101382.13
2023-04-29T21:26:41.087Z,101390.06
2023-04-29T21:33:45.695Z,101391.13
2023-04-29T21:40:47.686Z,101400.25
2023-04-29T21:47:49.289Z,101405.16
2023-04-29T21:54:50.906Z,101416.91
2023-04-29T22:02:00.146Z,101416.41
2023-04-29T22:09:02.512Z,101424.53
2023-04-29T22:16:05.218Z,101436.66
2023-04-29T22:23:06.856Z,101445.63
2023-04-29T22:30:08.916Z,101451.56
2023-04-29T22:37:10.562Z,101456.88
2023-04-29T22:44:12.167Z,101475.50
2023-04-29T22:51:13.798Z,101473.16
2023-04-29T22:58:15.612Z,101481.09
2023-04-29T23:05:17.438Z,101489.50
2023-04-29T23:12:19.699Z,101496.31
2023-04-29T23:19:21.348Z,101493.69
2023-04-29T23:26:23.353Z,101496.25
2023-04-29T23:33:24.991Z,101504.25
2023-04-29T23:40:26.570Z,101507.31
2023-04-29T23:47:28.185Z,101504.75
2023-04-29T23:54:29.737Z,101511.00
